METAR Data
IDs: Format: Raw Decoded Include TAF

Data at: 0108 UTC 06 Dec 2019

KRZR 060055Z AUTO 00000KT 10SM CLR 03/03 A3014 RMK A01
KRZR 060035Z AUTO 00000KT 10SM CLR 04/03 A3014 RMK A01
KRZR 060015Z AUTO 00000KT 10SM CLR 04/03 A3013 RMK A01
KRZR 052355Z AUTO 00000KT 10SM CLR 05/04 A3013 RMK A01
KRZR 052335Z AUTO 00000KT 10SM CLR 06/03 A3013 RMK A01
KRZR 052315Z AUTO 00000KT 10SM CLR 07/03 A3013 RMK A01
KRZR 052255Z AUTO 00000KT 10SM CLR 08/01 A3013 RMK A01
KRZR 052235Z AUTO 00000KT 10SM CLR 11/M00 A3012 RMK A01
KRZR 052215Z AUTO 00000KT 10SM CLR 14/M02 A3012 RMK A01
KRZR 052155Z AUTO 00000KT 10SM CLR 15/M03 A3012 RMK A01
KRZR 052135Z AUTO 00000KT 10SM CLR 15/M02 A3012 RMK A01
KRZR 052115Z AUTO 04004KT 10SM CLR 16/M02 A3012 RMK A01
KRZR 052055Z AUTO 00000KT 10SM CLR 16/M02 A3012 RMK A01
KRZR 052035Z AUTO 00000KT 10SM CLR 16/M02 A3012 RMK A01
KRZR 052015Z AUTO 00000KT 10SM CLR 16/M02 A3012 RMK A01
KRZR 051955Z AUTO 00000KT 10SM CLR 16/M02 A3012 RMK A01
KRZR 051935Z AUTO 00000KT 10SM CLR 15/M02 A3012 RMK A01
KRZR 051915Z AUTO 00000KT 10SM CLR 15/M03 A3012 RMK A01
KRZR 051855Z AUTO 00000KT 10SM CLR 15/M02 A3012 RMK A01
KRZR 051835Z AUTO 30003KT 10SM CLR 15/M02 A3013 RMK A01
KRZR 051815Z AUTO 00000KT 10SM CLR 14/M02 A3014 RMK A01
KRZR 051755Z AUTO 00000KT 10SM CLR 14/M02 A3015 RMK A01
KRZR 051735Z AUTO 00000KT 10SM CLR 14/M01 A3015 RMK A01
KRZR 051715Z AUTO 22003KT 10SM CLR 13/M01 A3016 RMK A01
KRZR 051655Z AUTO 00000KT 10SM CLR 13/00 A3017 RMK A01
KRZR 051615Z AUTO 00000KT 10SM CLR 11/M00 A3018 RMK A01
KRZR 051555Z AUTO VRB03KT 10SM CLR 11/00 A3018 RMK A01
KRZR 051535Z AUTO 00000KT 10SM CLR 10/01 A3018 RMK A01
KRZR 051515Z AUTO 00000KT 10SM CLR 09/03 A3017 RMK A01
KRZR 051455Z AUTO 00000KT 10SM CLR 07/03 A3016 RMK A01
KRZR 051435Z AUTO 00000KT 10SM CLR 05/03 A3016 RMK A01
KRZR 051415Z AUTO 00000KT 10SM CLR 03/03 A3015 RMK A01
KRZR 051355Z AUTO 20003KT 10SM CLR 01/01 A3014 RMK A01
KRZR 051335Z AUTO 20003KT 10SM CLR M01/M01 A3012 RMK A01
KRZR 051315Z AUTO 00000KT 10SM CLR M01/M01 A3011 RMK A01
KRZR 051255Z AUTO 00000KT 10SM CLR M02/M02 A3011 RMK A01
KRZR 051235Z AUTO 00000KT 10SM CLR M02/M02 A3010 RMK A01
KRZR 051215Z AUTO 00000KT 10SM CLR M02/M02 A3009 RMK A01
KRZR 051155Z AUTO 00000KT 10SM CLR M02/M02 A3008 RMK A01
KRZR 051135Z AUTO 00000KT 10SM CLR M02/M02 A3008 RMK A01
KRZR 051115Z AUTO 00000KT 10SM CLR M02/M01 A3007 RMK A01
KRZR 051055Z AUTO 00000KT 10SM CLR M02/M02 A3007 RMK A01
KRZR 051035Z AUTO 00000KT 10SM CLR M02/M02 A3006 RMK A01
KRZR 051015Z AUTO 00000KT 10SM CLR M01/M01 A3005 RMK A01
KRZR 050955Z AUTO 00000KT 10SM CLR M01/M01 A3005 RMK A01
KRZR 050935Z AUTO 00000KT 10SM CLR M02/M01 A3005 RMK A01
KRZR 050915Z AUTO 00000KT M01/M01 A3005 RMK A01
KRZR 050855Z AUTO 00000KT 10SM CLR M01/M01 A3005 RMK A01
KRZR 050835Z AUTO 00000KT 10SM CLR M01/M01 A3005 RMK A01
KRZR 050810Z AUTO 00000KT 10SM CLR M01/M00 A3005 RMK A01
KRZR 050755Z AUTO 00000KT 10SM CLR M01/M00 A3004 RMK A01
KRZR 050735Z AUTO 00000KT 10SM CLR M00/M00 A3004 RMK A01
KRZR 050715Z AUTO 00000KT 10SM CLR M00/M00 A3003 RMK A01
KRZR 050655Z AUTO 00000KT 10SM CLR M00/00 A3002 RMK A01
KRZR 050615Z AUTO 00000KT 10SM CLR 00/00 A3001 RMK A01
KRZR 050555Z AUTO 00000KT 10SM CLR 01/01 A3001 RMK A01
KRZR 050535Z AUTO 00000KT 10SM CLR 00/00 A3001 RMK A01
KRZR 050515Z AUTO 00000KT 10SM CLR 00/00 A3000 RMK A01
KRZR 050455Z AUTO 00000KT 10SM CLR 00/00 A3000 RMK A01
KRZR 050435Z AUTO 21003KT 10SM CLR 00/00 A3000 RMK A01
KRZR 050415Z AUTO 00000KT 10SM CLR 00/00 A2999 RMK A01
KRZR 050355Z AUTO 00000KT 10SM CLR 01/01 A2999 RMK A01
KRZR 050335Z AUTO 00000KT 10SM CLR 01/01 A2998 RMK A01
KRZR 050315Z AUTO 00000KT 10SM CLR 01/01 A2997 RMK A01
KRZR 050255Z AUTO 00000KT 10SM CLR 01/01 A2997 RMK A01
KRZR 050235Z AUTO 00000KT 10SM CLR 02/02 A2997 RMK A01
KRZR 050215Z AUTO 22003KT 10SM CLR 02/01 A2996 RMK A01
KRZR 050155Z AUTO 00000KT 10SM CLR 02/02 A2996 RMK A01
KRZR 050135Z AUTO 00000KT 10SM CLR 02/02 A2996 RMK A01
KRZR 050115Z AUTO 00000KT 10SM CLR 03/02 A2996 RMK A01
KRZR 050055Z AUTO 00000KT 10SM CLR 03/03 A2995 RMK A01
KRZR 050035Z AUTO 00000KT 10SM CLR 04/02 A2995 RMK A01
KRZR 050015Z AUTO 22004KT 10SM CLR 05/01 A2994 RMK A01
KRZR 042355Z AUTO 00000KT 10SM CLR 06/01 A2993 RMK A01
KRZR 042335Z AUTO 00000KT 10SM CLR 07/00 A2993 RMK A01
KRZR 042315Z AUTO 00000KT 10SM CLR 07/00 A2992 RMK A01
KRZR 042255Z AUTO 00000KT 10SM CLR 09/M01 A2991 RMK A01
KRZR 042235Z AUTO 00000KT 10SM CLR 10/M02 A2990 RMK A01
KRZR 042215Z AUTO 00000KT 10SM CLR 13/M04 A2990 RMK A01
KRZR 042155Z AUTO 30004KT 10SM CLR 14/M04 A2989 RMK A01
KRZR 042135Z AUTO VRB03G11KT 10SM CLR 15/M04 A2989 RMK A01
KRZR 042115Z AUTO 29009KT 10SM CLR 15/M05 A2988 RMK A01
KRZR 042055Z AUTO VRB06G12KT 10SM CLR 16/M03 A2988 RMK A01
KRZR 042035Z AUTO 26007KT 10SM CLR 15/M02 A2987 RMK A01
KRZR 042015Z AUTO 25008G13KT 10SM CLR 15/M02 A2986 RMK A01
KRZR 041955Z AUTO 21007KT 10SM CLR 15/M00 A2985 RMK A01
KRZR 041935Z AUTO 26006KT 10SM CLR 14/M01 A2986 RMK A01
KRZR 041915Z AUTO 25006KT 10SM CLR 14/M01 A2987 RMK A01
KRZR 041855Z AUTO VRB04G10KT 10SM CLR 13/M00 A2987 RMK A01
KRZR 041835Z AUTO 26009KT 10SM CLR 13/00 A2988 RMK A01
KRZR 041815Z AUTO 30009G14KT 280V340 10SM CLR 13/M00 A2989 RMK A01
KRZR 041755Z AUTO VRB05KT 10SM CLR 12/00 A2990 RMK A01
KRZR 041735Z AUTO VRB05KT 10SM CLR 11/01 A2990 RMK A01
KRZR 041715Z AUTO 00000KT 10SM CLR 11/01 A2991 RMK A01
KRZR 041655Z AUTO 21005KT 10SM CLR 11/02 A2991 RMK A01
KRZR 041635Z AUTO 00000KT 10SM CLR 10/01 A2991 RMK A01
KRZR 041615Z AUTO 17004KT 10SM CLR 09/02 A2991 RMK A01
KRZR 041555Z AUTO 18006KT 10SM CLR 08/02 A2992 RMK A01
KRZR 041535Z AUTO 18005KT 10SM CLR 08/02 A2992 RMK A01
KRZR 041515Z AUTO 22007KT 9SM CLR 07/02 A2992 RMK A01
KRZR 041455Z AUTO 20005KT 9SM CLR 06/02 A2991 RMK A01
KRZR 041435Z AUTO 19005KT 10SM CLR 04/02 A2991 RMK A01
KRZR 041415Z AUTO 00000KT 10SM CLR 03/02 A2991 RMK A01
KRZR 041355Z AUTO 22003KT 10SM CLR 01/01 A2990 RMK A01
KRZR 041335Z AUTO 00000KT 10SM CLR M01/M00 A2990 RMK A01
KRZR 041315Z AUTO 00000KT 9SM CLR M01/M01 A2990 RMK A01